createdAt,value
2023-03-04T00:02:23.616Z,21.82
2023-03-04T00:04:49.943Z,21.82
2023-03-04T00:07:16.340Z,21.82
2023-03-04T00:09:42.678Z,21.81
2023-03-04T00:12:09.060Z,21.81
2023-03-04T00:14:35.418Z,21.81
2023-03-04T00:17:01.781Z,21.81
2023-03-04T00:19:28.126Z,21.80
2023-03-04T00:21:54.508Z,21.80
2023-03-04T00:24:20.846Z,21.80
2023-03-04T00:26:47.238Z,21.80
2023-03-04T00:29:16.766Z,21.79
2023-03-04T00:31:43.187Z,21.77
2023-03-04T00:34:09.498Z,21.79
2023-03-04T00:36:35.882Z,21.79
2023-03-04T00:39:02.222Z,21.77
2023-03-04T00:41:28.608Z,21.77
2023-03-04T00:43:54.955Z,21.77
2023-03-04T00:46:21.384Z,21.79
2023-03-04T00:48:47.684Z,21.78
2023-03-04T00:51:14.090Z,21.77
2023-03-04T00:53:40.424Z,21.76
2023-03-04T00:56:06.813Z,21.75
2023-03-04T00:58:33.155Z,21.77
2023-03-04T01:00:59.590Z,21.76
2023-03-04T01:03:25.883Z,21.77
2023-03-04T01:05:52.273Z,21.77
2023-03-04T01:08:18.637Z,21.75
2023-03-04T01:10:45.004Z,21.75
2023-03-04T01:13:11.348Z,21.74
2023-03-04T01:15:37.737Z,21.74
2023-03-04T01:18:04.134Z,21.73
2023-03-04T01:20:30.509Z,21.75
2023-03-04T01:22:56.886Z,21.74
2023-03-04T01:25:23.274Z,21.73
2023-03-04T01:27:49.616Z,21.73
2023-03-04T01:30:16.001Z,21.73
2023-03-04T01:32:42.396Z,21.72
2023-03-04T01:35:08.796Z,21.72
2023-03-04T01:37:36.365Z,21.72
2023-03-04T01:40:01.523Z,21.70
2023-03-04T01:42:27.865Z,21.72
2023-03-04T01:44:54.261Z,21.72
2023-03-04T01:47:20.600Z,21.70
2023-03-04T01:49:46.990Z,21.69
2023-03-04T01:52:13.359Z,21.72
2023-03-04T01:54:39.771Z,21.68
2023-03-04T01:57:06.103Z,21.70
2023-03-04T01:59:32.484Z,21.69
2023-03-04T02:01:58.842Z,21.68
2023-03-04T02:04:25.382Z,21.70
2023-03-04T02:06:51.640Z,21.68
2023-03-04T02:09:19.680Z,21.67
2023-03-04T02:11:44.372Z,21.68
2023-03-04T02:14:10.769Z,21.67
2023-03-04T02:16:37.106Z,21.67
2023-03-04T02:19:03.483Z,21.66
2023-03-04T02:21:29.816Z,21.67
2023-03-04T02:23:56.208Z,21.66
2023-03-04T02:26:22.552Z,21.65
2023-03-04T02:28:48.951Z,21.67
2023-03-04T02:31:15.314Z,21.66
2023-03-04T02:33:41.663Z,21.66
2023-03-04T02:36:08.006Z,21.66
2023-03-04T02:38:34.397Z,21.65
2023-03-04T02:41:00.772Z,21.64
2023-03-04T02:43:27.160Z,21.65
2023-03-04T02:45:53.534Z,21.64
2023-03-04T02:48:19.926Z,21.66
2023-03-04T02:50:47.345Z,21.64
2023-03-04T02:53:12.699Z,21.64
2023-03-04T02:55:39.070Z,21.63
2023-03-04T02:58:05.474Z,21.63
2023-03-04T03:00:31.843Z,21.64
2023-03-04T03:02:58.310Z,21.64
2023-03-04T03:05:24.560Z,21.63
2023-03-04T03:07:50.977Z,21.63
2023-03-04T03:10:17.305Z,21.63
2023-03-04T03:12:43.787Z,21.62
2023-03-04T03:15:10.130Z,21.61
2023-03-04T03:17:36.513Z,21.63
2023-03-04T03:20:02.849Z,21.61
2023-03-04T03:22:29.233Z,21.62
2023-03-04T03:24:55.572Z,21.62
2023-03-04T03:27:21.965Z,21.61
2023-03-04T03:29:48.311Z,21.61
2023-03-04T03:32:14.772Z,21.61
2023-03-04T03:34:41.041Z,21.61
2023-03-04T03:37:07.448Z,21.60
2023-03-04T03:39:33.792Z,21.61
2023-03-04T03:42:00.198Z,21.59
2023-03-04T03:44:26.537Z,21.62
2023-03-04T03:46:52.933Z,21.60
2023-03-04T03:49:19.268Z,21.62
2023-03-04T03:51:45.648Z,21.62
2023-03-04T03:54:11.998Z,21.61
2023-03-04T03:56:38.377Z,21.63
2023-03-04T03:59:04.721Z,21.61
2023-03-04T04:01:31.114Z,21.60
2023-03-04T04:03:57.456Z,21.60
2023-03-04T04:06:23.834Z,21.61
2023-03-04T04:08:51.410Z,21.61
2023-03-04T04:11:16.531Z,21.61
2023-03-04T04:13:42.942Z,21.59
2023-03-04T04:16:09.309Z,21.60
2023-03-04T04:18:35.661Z,21.60
2023-03-04T04:21:02.002Z,21.58
2023-03-04T04:23:28.411Z,21.61
2023-03-04T04:25:54.746Z,21.58
2023-03-04T04:28:21.132Z,21.59
2023-03-04T04:30:47.542Z,21.59
2023-03-04T04:33:13.865Z,21.59
2023-03-04T04:35:40.215Z,21.59
2023-03-04T04:38:06.597Z,21.59
2023-03-04T04:40:32.957Z,21.59
2023-03-04T04:42:59.333Z,21.57
2023-03-04T04:45:25.688Z,21.59
2023-03-04T04:47:52.070Z,21.57
2023-03-04T04:50:18.413Z,21.57
2023-03-04T04:52:44.802Z,21.55
2023-03-04T04:55:11.145Z,21.58
2023-03-04T04:57:37.547Z,21.58
2023-03-04T05:00:03.897Z,21.57
2023-03-04T05:02:30.274Z,21.55
2023-03-04T05:04:56.615Z,21.57
2023-03-04T05:07:23.003Z,21.55
2023-03-04T05:09:49.340Z,21.54
2023-03-04T05:12:15.732Z,21.57
2023-03-04T05:14:42.097Z,21.55
2023-03-04T05:17:08.466Z,21.55
2023-03-04T05:19:34.810Z,21.55
2023-03-04T05:22:01.198Z,21.54
2023-03-04T05:24:27.533Z,21.54
2023-03-04T05:26:53.933Z,21.55
2023-03-04T05:29:20.293Z,21.55
2023-03-04T05:31:48.359Z,21.54
2023-03-04T05:34:13.002Z,21.54
2023-03-04T05:36:39.393Z,21.55
2023-03-04T05:39:05.724Z,21.54
2023-03-04T05:41:32.134Z,21.54
2023-03-04T05:43:59.422Z,21.53
2023-03-04T05:46:24.867Z,21.54
2023-03-04T05:48:51.200Z,21.53
2023-03-04T05:51:17.587Z,21.53
2023-03-04T05:53:43.962Z,21.53
2023-03-04T05:56:10.346Z,21.53
2023-03-04T05:58:36.705Z,21.54
2023-03-04T06:01:03.057Z,21.54
2023-03-04T06:03:29.460Z,21.54
2023-03-04T06:05:55.789Z,21.51
2023-03-04T06:08:22.125Z,21.51
2023-03-04T06:10:48.538Z,21.50
2023-03-04T06:13:14.869Z,21.50
2023-03-04T06:15:41.300Z,21.49
2023-03-04T06:18:07.654Z,21.47
2023-03-04T06:20:34.040Z,21.48
2023-03-04T06:23:00.392Z,21.46
2023-03-04T06:25:26.762Z,21.45
2023-03-04T06:27:55.093Z,21.44
2023-03-04T06:30:19.557Z,21.42
2023-03-04T06:32:45.882Z,21.45
2023-03-04T06:35:12.273Z,21.44
2023-03-04T06:37:38.663Z,21.43
2023-03-04T06:40:05.043Z,21.44
2023-03-04T06:42:31.411Z,21.43
2023-03-04T06:44:57.806Z,21.43
2023-03-04T06:47:24.149Z,21.43
2023-03-04T06:49:50.542Z,21.42
2023-03-04T06:52:16.877Z,21.42
2023-03-04T06:54:43.274Z,21.44
2023-03-04T06:57:09.619Z,21.39
2023-03-04T06:59:36.003Z,21.38
2023-03-04T07:02:02.345Z,21.40
2023-03-04T07:04:28.772Z,21.39
2023-03-04T07:06:55.074Z,21.39
2023-03-04T07:09:21.456Z,21.38
2023-03-04T07:11:48.818Z,21.38
2023-03-04T07:14:14.177Z,21.36
2023-03-04T07:16:40.535Z,21.38
2023-03-04T07:19:06.896Z,21.36
2023-03-04T07:21:33.251Z,21.35
2023-03-04T07:23:59.662Z,21.36
2023-03-04T07:26:26.048Z,21.37
2023-03-04T07:28:52.422Z,21.35
2023-03-04T07:31:18.796Z,21.35
2023-03-04T07:33:45.154Z,21.36
2023-03-04T07:36:11.496Z,21.35
2023-03-04T07:38:37.876Z,21.37
2023-03-04T07:41:04.253Z,21.35
2023-03-04T07:43:30.601Z,21.34
2023-03-04T07:45:56.973Z,21.35
2023-03-04T07:48:23.323Z,21.35
2023-03-04T07:50:49.706Z,21.35
2023-03-04T07:53:16.044Z,21.35
2023-03-04T07:55:42.446Z,21.35
2023-03-04T07:58:08.873Z,21.36
2023-03-04T08:00:35.213Z,21.36
2023-03-04T08:03:01.597Z,21.34
2023-03-04T08:05:27.933Z,21.35
2023-03-04T08:07:54.325Z,21.37
2023-03-04T08:10:20.667Z,21.34
2023-03-04T08:12:47.068Z,21.35
2023-03-04T08:15:13.399Z,21.37
2023-03-04T08:17:39.791Z,21.35
2023-03-04T08:20:06.131Z,21.37
2023-03-04T08:22:32.523Z,21.35
2023-03-04T08:24:58.861Z,21.36
2023-03-04T08:27:25.249Z,21.36
2023-03-04T08:29:51.600Z,21.37
2023-03-04T08:32:18.042Z,21.39
2023-03-04T08:34:44.326Z,21.38
2023-03-04T08:37:10.703Z,21.42
2023-03-04T08:39:37.048Z,21.42
2023-03-04T08:42:03.432Z,21.44
2023-03-04T08:44:29.787Z,21.42
2023-03-04T08:46:57.876Z,21.43
2023-03-04T08:49:22.509Z,21.42
2023-03-04T08:51:48.935Z,21.45
2023-03-04T08:54:15.273Z,21.45
2023-03-04T08:56:41.713Z,21.43
2023-03-04T08:59:08.055Z,21.46
2023-03-04T09:01:34.444Z,21.44
2023-03-04T09:04:00.821Z,21.46
2023-03-04T09:06:27.228Z,21.46
2023-03-04T09:08:53.593Z,21.45
2023-03-04T09:11:19.959Z,21.46
2023-03-04T09:13:46.343Z,21.46
2023-03-04T09:16:12.767Z,21.46
2023-03-04T09:18:39.021Z,21.46
2023-03-04T09:21:05.397Z,21.45
2023-03-04T09:23:31.746Z,21.44
2023-03-04T09:25:58.139Z,21.45
2023-03-04T09:28:24.485Z,21.45
2023-03-04T09:30:50.871Z,21.45
2023-03-04T09:33:18.432Z,21.46
2023-03-04T09:35:43.640Z,21.46
2023-03-04T09:38:09.935Z,21.45
2023-03-04T09:40:36.339Z,21.45
2023-03-04T09:43:02.688Z,21.47
2023-03-04T09:45:29.072Z,21.48
2023-03-04T09:47:55.453Z,21.50
2023-03-04T09:50:21.791Z,21.48
2023-03-04T09:52:48.128Z,21.49
2023-03-04T09:55:14.512Z,21.48
2023-03-04T09:57:40.864Z,21.47
2023-03-04T10:00:07.240Z,21.48
2023-03-04T10:02:33.572Z,21.47
2023-03-04T10:05:01.735Z,21.49
2023-03-04T10:07:26.303Z,21.46
2023-03-04T10:09:52.692Z,21.49
2023-03-04T10:12:19.022Z,21.47
2023-03-04T10:14:45.419Z,21.47
2023-03-04T10:17:11.763Z,21.47
2023-03-04T10:19:38.141Z,21.47
2023-03-04T10:22:04.477Z,21.48
2023-03-04T10:24:30.864Z,21.49
2023-03-04T10:26:57.205Z,21.49
2023-03-04T10:29:23.586Z,21.47
2023-03-04T10:31:49.978Z,21.50
2023-03-04T10:34:16.344Z,21.51
2023-03-04T10:36:44.056Z,21.53
2023-03-04T10:39:09.047Z,21.54
2023-03-04T10:41:35.453Z,21.55
2023-03-04T10:44:01.773Z,21.57
2023-03-04T10:46:28.120Z,21.57
2023-03-04T10:48:54.499Z,21.61
2023-03-04T10:51:20.842Z,21.60
2023-03-04T10:53:47.221Z,21.61
2023-03-04T10:56:13.562Z,21.60
2023-03-04T10:58:39.945Z,21.63
2023-03-04T11:01:06.358Z,21.64
2023-03-04T11:03:32.756Z,21.63
2023-03-04T11:05:59.064Z,21.63
2023-03-04T11:08:25.456Z,21.65
2023-03-04T11:10:51.805Z,21.63
2023-03-04T11:13:18.191Z,21.67
2023-03-04T11:15:44.523Z,21.66
2023-03-04T11:18:10.904Z,21.67
2023-03-04T11:20:37.242Z,21.68
2023-03-04T11:23:04.588Z,21.72
2023-03-04T11:25:29.976Z,21.72
2023-03-04T11:27:56.380Z,21.78
2023-03-04T11:30:22.719Z,21.73
2023-03-04T11:32:49.139Z,21.74
2023-03-04T11:35:16.781Z,21.72
2023-03-04T11:37:41.878Z,21.75
2023-03-04T11:40:08.209Z,21.76
2023-03-04T11:42:34.600Z,21.80
2023-03-04T11:45:00.956Z,21.80
2023-03-04T11:47:27.347Z,21.82
2023-03-04T11:49:53.686Z,21.83
2023-03-04T11:52:20.075Z,21.81
2023-03-04T11:54:46.413Z,21.88
2023-03-04T11:57:12.926Z,21.84
2023-03-04T11:59:39.160Z,21.85
2023-03-04T12:02:05.547Z,21.85
2023-03-04T12:04:31.974Z,21.88
2023-03-04T12:06:58.271Z,21.84
2023-03-04T12:09:24.643Z,21.84
2023-03-04T12:11:51.028Z,21.87
2023-03-04T12:14:20.305Z,21.87
2023-03-04T12:16:43.755Z,21.87
2023-03-04T12:19:10.104Z,21.84
2023-03-04T12:21:36.486Z,21.87
2023-03-04T12:24:02.828Z,21.83
2023-03-04T12:26:29.209Z,21.83
2023-03-04T12:28:55.551Z,21.84
2023-03-04T12:31:22.399Z,21.80
2023-03-04T12:33:48.324Z,21.81
2023-03-04T12:36:14.688Z,21.81
2023-03-04T12:38:41.028Z,21.81
2023-03-04T12:41:07.419Z,21.78
2023-03-04T12:43:36.009Z,21.80
2023-03-04T12:46:00.147Z,21.78
2023-03-04T12:48:26.490Z,21.78
2023-03-04T12:50:52.875Z,21.79
2023-03-04T12:53:19.258Z,21.79
2023-03-04T12:55:45.640Z,21.79
2023-03-04T12:58:11.996Z,21.78
2023-03-04T13:00:38.383Z,21.78
2023-03-04T13:03:04.840Z,21.77
2023-03-04T13:05:31.131Z,21.77
2023-03-04T13:07:57.476Z,21.76
2023-03-04T13:10:23.865Z,21.77
2023-03-04T13:12:50.212Z,21.75
2023-03-04T13:15:16.594Z,21.75
2023-03-04T13:17:43.974Z,21.73
2023-03-04T13:20:11.024Z,21.73
2023-03-04T13:22:35.706Z,21.75
2023-03-04T13:25:02.077Z,21.70
2023-03-04T13:27:28.413Z,21.74
2023-03-04T13:29:56.419Z,21.74
2023-03-04T13:32:21.177Z,21.72
2023-03-04T13:34:47.548Z,21.76
2023-03-04T13:37:15.195Z,21.76
2023-03-04T13:39:41.541Z,21.76
2023-03-04T13:42:06.688Z,21.77
2023-03-04T13:44:33.079Z,21.79
2023-03-04T13:46:59.429Z,21.79
2023-03-04T13:49:25.811Z,21.84
2023-03-04T13:51:52.148Z,21.85
2023-03-04T13:54:18.540Z,21.85
2023-03-04T13:56:44.908Z,21.87
2023-03-04T13:59:11.293Z,21.87
2023-03-04T14:01:37.633Z,21.89
2023-03-04T14:04:04.062Z,21.88
2023-03-04T14:06:30.364Z,21.89
2023-03-04T14:08:56.777Z,21.90
2023-03-04T14:11:23.122Z,21.87
2023-03-04T14:13:49.532Z,21.83
2023-03-04T14:16:15.899Z,21.87
2023-03-04T14:18:43.496Z,21.93
2023-03-04T14:21:08.600Z,21.89
2023-03-04T14:23:34.981Z,21.88
2023-03-04T14:26:01.316Z,22.07
2023-03-04T14:28:27.718Z,22.16
2023-03-04T14:30:54.085Z,22.08
2023-03-04T14:33:20.447Z,22.06
2023-03-04T14:35:46.917Z,22.07
2023-03-04T14:38:13.187Z,22.02
2023-03-04T14:40:39.549Z,21.90
2023-03-04T14:43:05.889Z,21.85
2023-03-04T14:45:32.338Z,21.93
2023-03-04T14:47:58.613Z,21.89
2023-03-04T14:50:25.010Z,21.89
2023-03-04T14:52:51.344Z,21.84
2023-03-04T14:55:17.733Z,21.85
2023-03-04T14:57:44.088Z,21.82
2023-03-04T15:00:10.458Z,21.84
2023-03-04T15:02:36.798Z,21.83
2023-03-04T15:05:03.185Z,21.88
2023-03-04T15:07:29.518Z,21.99
2023-03-04T15:09:55.936Z,21.99
2023-03-04T15:12:22.252Z,22.01
2023-03-04T15:14:48.643Z,22.04
2023-03-04T15:17:15.040Z,22.04
2023-03-04T15:19:41.396Z,22.05
2023-03-04T15:22:07.754Z,22.07
2023-03-04T15:24:34.128Z,22.06
2023-03-04T15:27:00.499Z,22.10
2023-03-04T15:29:26.891Z,22.09
2023-03-04T15:31:53.232Z,22.11
2023-03-04T15:34:19.634Z,22.10
2023-03-04T15:36:45.980Z,22.12
2023-03-04T15:39:12.368Z,22.11
2023-03-04T15:41:38.697Z,22.14
2023-03-04T15:44:05.086Z,22.13
2023-03-04T15:46:31.433Z,22.13
2023-03-04T15:48:57.823Z,22.14
2023-03-04T15:51:24.168Z,22.14
2023-03-04T15:53:50.552Z,22.14
2023-03-04T15:56:16.890Z,22.12
2023-03-04T15:58:43.302Z,22.13
2023-03-04T16:01:09.653Z,22.16
2023-03-04T16:03:36.003Z,22.16
2023-03-04T16:06:02.396Z,22.17
2023-03-04T16:08:28.727Z,22.16
2023-03-04T16:10:55.071Z,22.17
2023-03-04T16:13:21.461Z,22.18
2023-03-04T16:15:47.866Z,22.16
2023-03-04T16:18:14.200Z,22.17
2023-03-04T16:20:40.548Z,22.16
2023-03-04T16:23:06.925Z,22.13
2023-03-04T16:25:33.262Z,22.13
2023-03-04T16:27:59.653Z,22.16
2023-03-04T16:30:25.989Z,22.14
2023-03-04T16:32:52.395Z,22.16
2023-03-04T16:35:18.846Z,22.13
2023-03-04T16:37:45.125Z,22.14
2023-03-04T16:40:11.468Z,22.13
2023-03-04T16:42:37.862Z,22.14
2023-03-04T16:45:04.206Z,22.14
2023-03-04T16:47:30.589Z,22.14
2023-03-04T16:49:56.934Z,22.12
2023-03-04T16:52:23.309Z,22.11
2023-03-04T16:54:49.648Z,22.12
2023-03-04T16:57:16.049Z,22.13
2023-03-04T16:59:42.382Z,22.10
2023-03-04T17:02:08.772Z,22.11
2023-03-04T17:04:35.128Z,22.12
2023-03-04T17:07:01.494Z,22.11
2023-03-04T17:09:27.861Z,22.11
2023-03-04T17:11:54.246Z,22.12
2023-03-04T17:14:20.593Z,22.12
2023-03-04T17:16:46.977Z,22.12
2023-03-04T17:19:13.323Z,22.12
2023-03-04T17:21:39.726Z,22.11
2023-03-04T17:24:06.075Z,22.11
2023-03-04T17:26:32.457Z,22.11
2023-03-04T17:28:58.795Z,22.10
2023-03-04T17:31:25.240Z,22.11
2023-03-04T17:33:51.516Z,22.11
2023-03-04T17:36:17.925Z,22.11
2023-03-04T17:38:44.263Z,22.12
2023-03-04T17:41:10.680Z,22.13
2023-03-04T17:43:37.032Z,22.11
2023-03-04T17:46:03.413Z,22.12
2023-03-04T17:48:29.750Z,22.11
2023-03-04T17:50:56.143Z,22.10
2023-03-04T17:53:22.479Z,22.11
2023-03-04T17:55:48.871Z,22.11
2023-03-04T17:58:15.219Z,22.11
2023-03-04T18:00:41.645Z,22.11
2023-03-04T18:03:07.950Z,22.10
2023-03-04T18:05:34.380Z,22.08
2023-03-04T18:08:00.703Z,22.08
2023-03-04T18:10:27.098Z,22.07
2023-03-04T18:12:53.428Z,22.06
2023-03-04T18:15:19.849Z,22.06
2023-03-04T18:17:46.188Z,22.05
2023-03-04T18:20:12.580Z,22.05
2023-03-04T18:22:38.923Z,22.05
2023-03-04T18:25:05.350Z,22.02
2023-03-04T18:27:31.689Z,22.01
2023-03-04T18:29:58.077Z,22.01
2023-03-04T18:32:24.449Z,21.98
2023-03-04T18:34:50.809Z,22.01
2023-03-04T18:37:17.147Z,21.99
2023-03-04T18:39:43.546Z,21.98
2023-03-04T18:42:09.896Z,21.97
2023-03-04T18:44:36.277Z,21.97
2023-03-04T18:47:02.613Z,21.96
2023-03-04T18:49:29.012Z,21.96
2023-03-04T18:51:55.375Z,21.95
2023-03-04T18:54:21.756Z,21.94
2023-03-04T18:56:48.106Z,21.94
2023-03-04T18:59:14.568Z,21.93
2023-03-04T19:01:40.943Z,21.93
2023-03-04T19:04:07.363Z,21.92
2023-03-04T19:06:33.688Z,21.91
2023-03-04T19:09:00.060Z,21.92
2023-03-04T19:11:26.407Z,21.91
2023-03-04T19:13:52.801Z,21.90
2023-03-04T19:16:19.196Z,21.90
2023-03-04T19:18:45.526Z,21.89
2023-03-04T19:21:11.872Z,21.90
2023-03-04T19:23:38.252Z,21.88
2023-03-04T19:26:04.638Z,21.87
2023-03-04T19:28:31.026Z,21.88
2023-03-04T19:30:57.429Z,21.88
2023-03-04T19:33:23.782Z,21.88
2023-03-04T19:35:50.186Z,21.87
2023-03-04T19:38:16.549Z,21.87
2023-03-04T19:40:42.875Z,21.85
2023-03-04T19:43:09.271Z,21.84
2023-03-04T19:45:35.629Z,21.83
2023-03-04T19:48:01.997Z,21.82
2023-03-04T19:50:28.354Z,21.82
2023-03-04T19:52:54.729Z,21.82
2023-03-04T19:55:21.073Z,21.83
2023-03-04T19:57:47.456Z,21.81
2023-03-04T20:00:14.775Z,21.82
2023-03-04T20:02:40.193Z,21.82
2023-03-04T20:05:06.549Z,21.80
2023-03-04T20:07:32.943Z,21.80
2023-03-04T20:09:59.280Z,21.79
2023-03-04T20:12:25.680Z,21.79
2023-03-04T20:14:52.004Z,21.79
2023-03-04T20:17:19.590Z,21.79
2023-03-04T20:19:44.737Z,21.78
2023-03-04T20:22:11.230Z,21.79
2023-03-04T20:24:37.581Z,21.77
2023-03-04T20:27:04.033Z,21.77
2023-03-04T20:29:30.356Z,21.75
2023-03-04T20:31:56.752Z,21.76
2023-03-04T20:34:23.070Z,21.77
2023-03-04T20:36:49.491Z,21.78
2023-03-04T20:39:28.219Z,21.74
2023-03-04T20:41:42.210Z,21.75
2023-03-04T20:44:08.553Z,21.76
2023-03-04T20:46:34.973Z,21.73
2023-03-04T20:49:01.289Z,21.75
2023-03-04T20:51:27.661Z,21.74
2023-03-04T20:53:54.014Z,21.73
2023-03-04T20:56:20.392Z,21.74
2023-03-04T20:58:46.730Z,21.72
2023-03-04T21:01:13.131Z,21.69
2023-03-04T21:03:39.446Z,21.73
2023-03-04T21:06:05.832Z,21.72
2023-03-04T21:08:32.162Z,21.69
2023-03-04T21:10:58.561Z,21.69
2023-03-04T21:13:24.911Z,21.70
2023-03-04T21:15:51.338Z,21.69
2023-03-04T21:18:17.672Z,21.67
2023-03-04T21:20:44.061Z,21.68
2023-03-04T21:23:10.416Z,21.68
2023-03-04T21:25:36.812Z,21.69
2023-03-04T21:28:03.236Z,21.67
2023-03-04T21:30:29.644Z,21.67
2023-03-04T21:32:56.029Z,21.67
2023-03-04T21:35:22.460Z,21.67
2023-03-04T21:37:48.742Z,21.66
2023-03-04T21:40:15.173Z,21.67
2023-03-04T21:42:41.518Z,21.66
2023-03-04T21:45:07.903Z,21.66
2023-03-04T21:47:34.244Z,21.66
2023-03-04T21:50:00.649Z,21.65
2023-03-04T21:52:27.026Z,21.65
2023-03-04T21:54:53.429Z,21.64
2023-03-04T21:57:19.794Z,21.63
2023-03-04T21:59:46.174Z,21.64
2023-03-04T22:02:12.570Z,21.64
2023-03-04T22:04:38.928Z,21.63
2023-03-04T22:07:05.261Z,21.62
2023-03-04T22:09:31.647Z,21.63
2023-03-04T22:11:58.012Z,21.62
2023-03-04T22:14:24.419Z,21.64
2023-03-04T22:16:55.765Z,21.62
2023-03-04T22:19:17.162Z,21.63
2023-03-04T22:21:43.496Z,21.63
2023-03-04T22:24:09.916Z,21.62
2023-03-04T22:26:36.258Z,21.60
2023-03-04T22:29:02.688Z,21.61
2023-03-04T22:31:29.097Z,21.62
2023-03-04T22:33:57.955Z,21.62
2023-03-04T22:36:24.295Z,21.60
2023-03-04T22:38:50.680Z,21.60
2023-03-04T22:41:17.023Z,21.60
2023-03-04T22:43:43.433Z,21.59
2023-03-04T22:46:09.833Z,21.58
2023-03-04T22:48:36.159Z,21.58
2023-03-04T22:51:02.502Z,21.59
2023-03-04T22:53:28.891Z,21.57
2023-03-04T22:55:56.176Z,21.58
2023-03-04T22:58:21.596Z,21.55
2023-03-04T23:00:47.987Z,21.57
2023-03-04T23:03:14.722Z,21.58
2023-03-04T23:05:41.083Z,21.57
2023-03-04T23:08:07.458Z,21.55
2023-03-04T23:10:33.807Z,21.55
2023-03-04T23:13:00.179Z,21.55
2023-03-04T23:15:26.535Z,21.57
2023-03-04T23:17:52.928Z,21.55
2023-03-04T23:20:19.278Z,21.55
2023-03-04T23:22:45.730Z,21.53
2023-03-04T23:25:12.094Z,21.53
2023-03-04T23:27:38.504Z,21.52
2023-03-04T23:30:04.813Z,21.54
2023-03-04T23:32:31.270Z,21.54
2023-03-04T23:34:57.540Z,21.52
2023-03-04T23:37:23.928Z,21.52
2023-03-04T23:39:50.259Z,21.54
2023-03-04T23:42:16.655Z,21.54
2023-03-04T23:44:42.982Z,21.52
2023-03-04T23:47:09.364Z,21.53
2023-03-04T23:49:35.696Z,21.52
2023-03-04T23:52:02.091Z,21.51
2023-03-04T23:54:28.429Z,21.52
2023-03-04T23:56:54.821Z,21.51
2023-03-04T23:59:21.156Z,21.51
